Time;durP1;ratioP1;P1;durP2;ratioP2;P2;SDS_P1;SDS_P2;PMS_P1;PMS_P2;Temp;Humidity;BMP_temperature;BMP_pressure;BME280_temperature;BME280_humidity;BME280_pressure;Samples;Min_cycle;Max_cycle;Signal;HPM_P1;HPM_P2
2023/07/14 15:00:26;;;;;;;4.07;1.40;;;26.40;95.10;;;;;;25560337;22;1448672;-46
2023/07/14 15:10:28;;;;;;;2.97;1.38;;;26.30;95.90;;;;;;25619814;23;20009;-58
2023/07/14 15:20:30;;;;;;;2.70;1.67;;;26.10;95.40;;;;;;25593854;23;20005;-45
2023/07/14 15:30:33;;;;;;;3.50;1.38;;;25.90;97.10;;;;;;25621268;23;20001;-45
2023/07/14 15:40:39;;;;;;;3.05;1.42;;;26.10;96.10;;;;;;25621066;23;20051;-49
2023/07/14 15:50:42;;;;;;;2.57;1.70;;;26.50;96.10;;;;;;25620584;23;20075;-48
2023/07/14 16:00:43;;;;;;;2.85;1.98;;;25.90;95.30;;;;;;25634944;23;20075;-50
2023/07/14 16:10:45;;;;;;;3.80;1.75;;;24.10;97.00;;;;;;25591686;23;20005;-58
2023/07/14 16:20:47;;;;;;;4.07;1.70;;;23.00;99.40;;;;;;25591187;23;20013;-58
2023/07/14 16:30:49;;;;;;;4.85;2.10;;;22.50;99.90;;;;;;25592450;23;20261;-58
2023/07/14 16:40:50;;;;;;;4.43;2.00;;;22.20;99.60;;;;;;25591475;23;20001;-58
2023/07/14 16:50:52;;;;;;;2.42;1.85;;;21.80;99.90;;;;;;25592295;23;20017;-47
2023/07/14 17:00:56;;;;;;;22.98;15.65;;;20.90;99.90;;;;;;25633255;23;20016;-58
2023/07/14 17:11:03;;;;;;;6.35;4.30;;;19.70;99.90;;;;;;25591035;23;20459;-45
2023/07/14 17:21:08;;;;;;;6.15;5.55;;;18.90;99.90;;;;;;25631798;23;20052;-46
2023/07/14 17:31:10;;;;;;;13.50;8.57;;;18.50;99.90;;;;;;25585094;23;20025;-57
2023/07/14 17:41:12;;;;;;;7.13;3.22;;;18.20;99.90;;;;;;25587689;23;20012;-49
2023/07/14 17:51:13;;;;;;;7.40;4.75;;;17.70;99.90;;;;;;25589424;23;20376;-46
2023/07/14 18:01:16;;;;;;;9.07;4.50;;;17.40;99.90;;;;;;25588786;23;20005;-57
2023/07/14 18:11:20;;;;;;;8.50;4.28;;;17.00;99.90;;;;;;25588579;23;20012;-57
2023/07/14 18:21:25;;;;;;;7.35;4.00;;;16.80;99.90;;;;;;25587883;23;20495;-58
2023/07/14 18:31:27;;;;;;;8.93;3.55;;;16.60;99.90;;;;;;25587056;23;20075;-58
2023/07/14 18:41:29;;;;;;;12.23;7.70;;;16.40;99.90;;;;;;25587835;23;20383;-47
2023/07/14 18:51:33;;;;;;;7.50;4.15;;;16.20;99.90;;;;;;25587495;23;20002;-57
2023/07/14 19:01:35;;;;;;;10.13;4.30;;;16.10;99.90;;;;;;25587107;23;20001;-57
2023/07/14 19:11:40;;;;;;;7.20;4.00;;;15.90;99.90;;;;;;25585633;23;20009;-57
2023/07/14 19:21:43;;;;;;;6.70;4.65;;;15.70;99.90;;;;;;25627685;23;20005;-44
2023/07/14 19:31:46;;;;;;;7.97;4.65;;;15.50;99.90;;;;;;25590042;23;20013;-44
2023/07/14 19:41:52;;;;;;;6.32;4.50;;;15.40;99.90;;;;;;25593324;23;20008;-48
2023/07/14 19:51:57;;;;;;;5.35;4.00;;;15.20;99.90;;;;;;25635063;23;20001;-58
2023/07/14 20:01:59;;;;;;;7.30;4.07;;;15.10;99.90;;;;;;25594951;23;20013;-46
2023/07/14 20:12:01;;;;;;;6.93;3.97;;;15.20;99.90;;;;;;25592803;23;20005;-48
2023/07/14 20:22:04;;;;;;;7.35;4.65;;;15.30;99.90;;;;;;25590491;23;20510;-44
2023/07/14 20:32:11;;;;;;;6.25;3.90;;;15.30;99.90;;;;;;25607161;23;20010;-44
2023/07/14 20:42:15;;;;;;;9.32;4.38;;;15.30;99.90;;;;;;25631366;23;20001;-48
2023/07/14 20:52:20;;;;;;;9.23;4.03;;;15.30;99.90;;;;;;25590470;23;20005;-59
2023/07/14 21:02:24;;;;;;;6.82;3.97;;;15.40;99.90;;;;;;25589222;23;20032;-57
2023/07/14 21:12:26;;;;;;;9.75;4.90;;;15.50;99.90;;;;;;25590145;23;20032;-55
2023/07/14 21:22:29;;;;;;;6.13;3.85;;;15.60;99.90;;;;;;25588438;23;20005;-45
2023/07/14 21:32:32;;;;;;;7.82;3.90;;;15.90;99.90;;;;;;25590021;23;20340;-57
2023/07/14 21:42:34;;;;;;;10.52;4.30;;;16.00;99.90;;;;;;25589037;23;20009;-57
2023/07/14 21:52:35;;;;;;;9.23;4.32;;;15.90;99.90;;;;;;25588464;23;20094;-45
2023/07/14 22:02:37;;;;;;;11.40;4.32;;;15.80;99.90;;;;;;25588652;23;20517;-45
2023/07/14 22:12:39;;;;;;;7.30;3.63;;;16.40;99.90;;;;;;25587038;23;20009;-50
2023/07/14 22:22:41;;;;;;;5.20;3.75;;;17.10;99.90;;;;;;25588345;23;20005;-56
2023/07/14 22:32:44;;;;;;;7.65;3.88;;;17.40;99.90;;;;;;25588890;23;20013;-57
2023/07/14 22:42:46;;;;;;;9.88;4.10;;;17.50;99.90;;;;;;25587302;23;20032;-46
2023/07/14 22:52:48;;;;;;;8.27;4.47;;;17.60;99.90;;;;;;25587922;23;20009;-57
2023/07/14 23:02:50;;;;;;;10.15;5.35;;;17.40;99.90;;;;;;25587649;23;20060;-57
2023/07/14 23:12:51;;;;;;;8.07;4.70;;;17.30;99.90;;;;;;25595382;23;20733;-46
2023/07/14 23:22:53;;;;;;;12.52;5.10;;;17.50;99.90;;;;;;25595267;23;20005;-55
2023/07/14 23:32:55;;;;;;;11.15;5.13;;;17.50;99.90;;;;;;25594691;23;20024;-48
2023/07/14 23:42:56;;;;;;;8.68;5.55;;;17.20;99.90;;;;;;25594249;23;20005;-45
2023/07/14 23:52:58;;;;;;;8.02;5.00;;;17.00;99.90;;;;;;25594224;23;20336;-56
